Time;durP1;ratioP1;P1;durP2;ratioP2;P2;SDS_P1;SDS_P2;PMS_P1;PMS_P2;Temp;Humidity;BMP_temperature;BMP_pressure;BME280_temperature;BME280_humidity;BME280_pressure;Samples;Min_cycle;Max_cycle;Signal;HPM_P1;HPM_P2
2022/08/08 00:00:16;;;;;;;6.47;5.70;;;;;;;;;;5033085;28;20377;-70
2022/08/08 00:02:51;;;;;;;7.78;5.30;;;;;;;;;;5025396;28;20049;-70
2022/08/08 00:05:36;;;;;;;6.55;5.32;;;;;;;;;;5033353;28;20140;-70
2022/08/08 00:08:30;;;;;;;10.07;5.47;;;;;;;;;;5033141;28;20641;-70
2022/08/08 00:11:07;;;;;;;12.23;5.68;;;;;;;;;;5033395;28;20040;-70
2022/08/08 00:13:57;;;;;;;7.32;5.22;;;;;;;;;;5052961;28;20033;-70
2022/08/08 00:16:51;;;;;;;6.50;5.07;;;;;;;;;;5053364;28;20041;-70
2022/08/08 00:20:01;;;;;;;6.95;4.97;;;;;;;;;;5051864;28;20045;-70
2022/08/08 00:22:33;;;;;;;7.60;5.18;;;;;;;;;;5054137;28;20039;-70
2022/08/08 00:25:10;;;;;;;6.25;4.30;;;;;;;;;;5054034;28;20427;-70
2022/08/08 00:27:38;;;;;;;6.10;4.95;;;;;;;;;;5054014;28;20064;-70
2022/08/08 00:30:09;;;;;;;8.10;4.47;;;;;;;;;;5054114;28;20033;-71
2022/08/08 00:32:50;;;;;;;7.00;4.50;;;;;;;;;;5039140;28;20025;-70
2022/08/08 00:35:41;;;;;;;5.75;4.68;;;;;;;;;;5037424;28;20388;-70
2022/08/08 00:38:06;;;;;;;6.32;4.57;;;;;;;;;;5031850;28;20037;-71
2022/08/08 00:40:38;;;;;;;8.23;5.20;;;;;;;;;;5033230;28;20033;-70
2022/08/08 00:43:31;;;;;;;6.13;5.05;;;;;;;;;;5033771;28;20041;-70
2022/08/08 00:46:29;;;;;;;8.20;5.28;;;;;;;;;;5028034;28;20087;-70
2022/08/08 00:49:31;;;;;;;7.75;4.80;;;;;;;;;;5034978;28;20056;-70
2022/08/08 00:52:36;;;;;;;5.38;4.80;;;;;;;;;;5045186;28;20033;-71
2022/08/08 00:55:41;;;;;;;7.18;5.15;;;;;;;;;;5051494;28;20514;-70
2022/08/08 00:58:32;;;;;;;8.32;5.20;;;;;;;;;;5051059;28;20203;-70
2022/08/08 01:01:19;;;;;;;6.55;4.70;;;;;;;;;;5051084;28;20037;-70
2022/08/08 01:04:20;;;;;;;6.40;4.82;;;;;;;;;;5051036;28;20040;-71
2022/08/08 01:07:24;;;;;;;5.78;4.53;;;;;;;;;;5052361;28;20037;-71
2022/08/08 01:10:27;;;;;;;5.13;4.63;;;;;;;;;;5050647;28;20048;-71
2022/08/08 01:12:53;;;;;;;7.25;5.28;;;;;;;;;;5050521;28;20388;-71
2022/08/08 01:15:45;;;;;;;8.38;4.80;;;;;;;;;;5050657;28;20033;-71
2022/08/08 01:18:40;;;;;;;8.75;5.85;;;;;;;;;;5050724;28;20032;-71
2022/08/08 01:21:31;;;;;;;6.28;5.15;;;;;;;;;;5050692;28;20083;-71
2022/08/08 01:23:57;;;;;;;6.55;5.28;;;;;;;;;;5043777;28;20422;-71
2022/08/08 01:26:30;;;;;;;9.02;4.95;;;;;;;;;;5030967;28;20025;-71
2022/08/08 01:29:27;;;;;;;5.95;5.05;;;;;;;;;;5030955;28;20079;-71
2022/08/08 01:32:20;;;;;;;9.13;5.03;;;;;;;;;;5030974;28;20400;-70
2022/08/08 01:35:10;;;;;;;6.55;4.82;;;;;;;;;;5030736;28;20049;-69
2022/08/08 01:37:48;;;;;;;9.95;5.38;;;;;;;;;;5030702;28;20556;-69
2022/08/08 01:40:34;;;;;;;8.07;5.90;;;;;;;;;;5031816;28;20041;-71
2022/08/08 01:43:04;;;;;;;9.68;5.63;;;;;;;;;;5030705;28;20532;-71
2022/08/08 01:46:01;;;;;;;11.73;5.30;;;;;;;;;;5030702;28;20117;-71
2022/08/08 01:48:59;;;;;;;7.30;5.40;;;;;;;;;;5030732;28;20037;-71
2022/08/08 01:51:56;;;;;;;12.13;6.40;;;;;;;;;;5032442;28;20037;-71
2022/08/08 01:54:55;;;;;;;8.90;6.18;;;;;;;;;;5030157;28;20045;-71
2022/08/08 01:58:06;;;;;;;8.73;5.20;;;;;;;;;;5031653;28;20048;-69
2022/08/08 02:00:41;;;;;;;8.52;5.30;;;;;;;;;;4990061;28;20046;-69
2022/08/08 02:03:52;;;;;;;8.40;5.65;;;;;;;;;;5021727;28;20063;-69
2022/08/08 02:06:27;;;;;;;7.10;5.07;;;;;;;;;;5024233;28;20047;-69
2022/08/08 02:09:19;;;;;;;7.97;5.15;;;;;;;;;;5029922;28;20040;-69
2022/08/08 02:11:48;;;;;;;7.30;5.05;;;;;;;;;;5029943;28;20373;-72
2022/08/08 02:14:40;;;;;;;9.38;5.00;;;;;;;;;;5030004;28;20038;-71
2022/08/08 02:17:17;;;;;;;6.53;4.50;;;;;;;;;;5030119;28;20052;-69
2022/08/08 02:20:08;;;;;;;9.55;4.80;;;;;;;;;;5030169;28;20124;-70
2022/08/08 02:22:55;;;;;;;6.70;4.68;;;;;;;;;;5031466;28;20033;-70
2022/08/08 02:25:22;;;;;;;12.05;5.47;;;;;;;;;;5040283;28;20038;-70
2022/08/08 02:28:04;;;;;;;8.40;5.05;;;;;;;;;;5030045;28;20061;-69
2022/08/08 02:30:34;;;;;;;11.52;5.43;;;;;;;;;;5029496;28;20044;-69
2022/08/08 02:33:09;;;;;;;8.00;4.80;;;;;;;;;;5031197;28;20029;-69
2022/08/08 02:36:08;;;;;;;7.10;4.65;;;;;;;;;;5029732;28;20034;-70
2022/08/08 02:38:49;;;;;;;8.90;4.93;;;;;;;;;;5029990;28;20041;-70
2022/08/08 02:41:31;;;;;;;5.50;4.45;;;;;;;;;;5030169;28;20054;-70
2022/08/08 02:44:25;;;;;;;11.07;4.97;;;;;;;;;;5031300;28;20053;-69
2022/08/08 02:47:18;;;;;;;8.10;4.70;;;;;;;;;;5048478;28;20132;-70
2022/08/08 02:50:20;;;;;;;8.57;4.35;;;;;;;;;;5051146;28;20116;-70
2022/08/08 02:52:54;;;;;;;9.45;4.35;;;;;;;;;;5049988;28;20124;-68
2022/08/08 02:56:01;;;;;;;7.47;4.85;;;;;;;;;;5049814;28;20174;-70
2022/08/08 02:58:43;;;;;;;6.05;4.35;;;;;;;;;;5043113;28;20044;-70
2022/08/08 03:01:30;;;;;;;7.97;4.30;;;;;;;;;;5030001;28;20037;-70
2022/08/08 03:04:26;;;;;;;8.02;4.38;;;;;;;;;;5029713;28;20034;-70
2022/08/08 03:07:16;;;;;;;7.13;4.93;;;;;;;;;;5026580;28;20045;-70
2022/08/08 03:10:13;;;;;;;12.80;5.00;;;;;;;;;;5033431;28;20037;-70
2022/08/08 03:13:13;;;;;;;11.27;5.35;;;;;;;;;;5033206;28;20037;-70
2022/08/08 03:15:57;;;;;;;9.32;6.07;;;;;;;;;;5033163;28;20124;-70
2022/08/08 03:18:34;;;;;;;15.10;6.35;;;;;;;;;;5052316;28;20025;-70
2022/08/08 03:21:00;;;;;;;6.82;4.78;;;;;;;;;;5053055;28;20033;-70
2022/08/08 03:23:29;;;;;;;10.43;5.32;;;;;;;;;;5052875;28;20063;-70
2022/08/08 03:25:56;;;;;;;5.47;4.40;;;;;;;;;;5053072;28;20056;-70
2022/08/08 03:28:34;;;;;;;10.80;5.68;;;;;;;;;;5052981;28;20036;-70
2022/08/08 03:33:16;;;;;;;7.55;4.88;;;;;;;;;;5053881;28;20540;-70
2022/08/08 03:33:47;;;;;;;11.57;5.60;;;;;;;;;;5052236;28;20172;-70
2022/08/08 03:36:14;;;;;;;10.93;5.47;;;;;;;;;;5052644;28;20060;-70
2022/08/08 03:38:40;;;;;;;18.55;6.80;;;;;;;;;;5052563;28;20057;-70
2022/08/08 03:41:06;;;;;;;6.75;5.25;;;;;;;;;;5052375;28;20029;-70
2022/08/08 03:43:32;;;;;;;10.65;6.03;;;;;;;;;;5053536;28;20029;-70
2022/08/08 03:46:06;;;;;;;7.10;5.10;;;;;;;;;;5054124;28;20044;-70
2022/08/08 03:48:33;;;;;;;10.05;5.68;;;;;;;;;;5052337;28;20037;-70
2022/08/08 03:51:05;;;;;;;7.70;4.90;;;;;;;;;;5053658;28;20107;-70
2022/08/08 03:53:36;;;;;;;9.27;4.80;;;;;;;;;;5052285;28;20041;-70
2022/08/08 03:56:02;;;;;;;8.65;4.75;;;;;;;;;;5052009;28;20063;-70
2022/08/08 03:58:29;;;;;;;7.65;4.50;;;;;;;;;;5053079;28;20055;-70
2022/08/08 04:01:06;;;;;;;6.88;4.28;;;;;;;;;;5047788;28;20485;-70
2022/08/08 04:03:34;;;;;;;7.80;4.38;;;;;;;;;;5039104;28;20079;-70
2022/08/08 04:06:06;;;;;;;10.93;4.82;;;;;;;;;;5032040;28;20500;-70
2022/08/08 04:08:36;;;;;;;7.03;4.50;;;;;;;;;;5048521;28;20053;-70
2022/08/08 04:11:08;;;;;;;11.38;4.65;;;;;;;;;;5031764;28;20314;-70
2022/08/08 04:13:35;;;;;;;6.38;4.38;;;;;;;;;;5031637;28;20037;-70
2022/08/08 04:16:01;;;;;;;8.13;4.65;;;;;;;;;;5033393;28;20132;-70
2022/08/08 04:18:28;;;;;;;10.25;5.18;;;;;;;;;;5036044;28;20091;-70
2022/08/08 04:20:54;;;;;;;9.55;5.32;;;;;;;;;;5031580;28;20029;-70
2022/08/08 04:23:21;;;;;;;13.25;4.80;;;;;;;;;;5032052;28;20112;-70
2022/08/08 04:25:48;;;;;;;13.70;5.57;;;;;;;;;;5033555;28;20021;-70
2022/08/08 04:28:15;;;;;;;11.30;5.15;;;;;;;;;;5037508;28;20040;-70
2022/08/08 04:30:41;;;;;;;9.88;5.00;;;;;;;;;;5041523;28;20033;-70
2022/08/08 04:33:07;;;;;;;18.42;5.60;;;;;;;;;;5037743;28;20092;-71
2022/08/08 04:35:33;;;;;;;8.98;5.28;;;;;;;;;;5030266;28;20041;-70
2022/08/08 04:37:59;;;;;;;8.65;4.88;;;;;;;;;;5032028;28;20045;-70
2022/08/08 04:40:30;;;;;;;9.77;4.82;;;;;;;;;;5032101;28;20424;-70
2022/08/08 04:42:57;;;;;;;5.10;4.57;;;;;;;;;;5032160;28;20044;-70
2022/08/08 04:45:25;;;;;;;6.25;4.85;;;;;;;;;;5032329;28;20035;-70
2022/08/08 04:47:55;;;;;;;8.63;4.80;;;;;;;;;;5032460;28;20041;-70
2022/08/08 04:50:21;;;;;;;8.65;4.90;;;;;;;;;;5032113;28;20033;-70
2022/08/08 04:52:47;;;;;;;10.52;5.72;;;;;;;;;;5033934;28;20025;-70
2022/08/08 04:55:16;;;;;;;14.05;5.97;;;;;;;;;;5057346;28;20447;-71
2022/08/08 04:57:43;;;;;;;13.93;5.82;;;;;;;;;;5049018;28;20041;-70
2022/08/08 05:00:10;;;;;;;14.88;5.25;;;;;;;;;;5048880;28;20087;-70
2022/08/08 05:02:36;;;;;;;11.10;4.80;;;;;;;;;;5032162;28;20419;-70
2022/08/08 05:05:03;;;;;;;15.13;5.68;;;;;;;;;;5031981;28;20041;-70
2022/08/08 05:07:31;;;;;;;11.02;4.90;;;;;;;;;;5031797;28;20273;-70
2022/08/08 05:09:57;;;;;;;8.65;5.13;;;;;;;;;;5048118;28;20491;-70
2022/08/08 05:12:23;;;;;;;7.43;4.35;;;;;;;;;;5048419;28;20033;-70
2022/08/08 05:14:50;;;;;;;11.25;4.97;;;;;;;;;;5048957;28;20033;-74
2022/08/08 05:17:16;;;;;;;10.20;4.68;;;;;;;;;;5043356;28;20032;-76
2022/08/08 05:19:42;;;;;;;12.45;4.90;;;;;;;;;;5035197;28;20029;-75
2022/08/08 05:22:10;;;;;;;7.85;4.10;;;;;;;;;;5031776;28;20033;-73
2022/08/08 05:24:41;;;;;;;8.68;4.63;;;;;;;;;;5032049;28;20403;-74
2022/08/08 05:27:07;;;;;;;7.88;4.63;;;;;;;;;;5031500;28;20124;-74
2022/08/08 05:29:36;;;;;;;9.20;4.65;;;;;;;;;;5031455;28;20124;-75
2022/08/08 05:32:07;;;;;;;5.78;4.60;;;;;;;;;;5034064;28;20041;-74
2022/08/08 05:34:40;;;;;;;10.95;4.25;;;;;;;;;;5030689;28;20045;-74
2022/08/08 05:37:07;;;;;;;10.47;4.63;;;;;;;;;;5031346;28;20040;-73
2022/08/08 05:39:34;;;;;;;6.53;4.40;;;;;;;;;;5040737;28;20107;-74
2022/08/08 05:42:02;;;;;;;10.93;4.72;;;;;;;;;;5030614;28;20033;-73
2022/08/08 05:44:29;;;;;;;6.10;4.32;;;;;;;;;;5031136;28;20550;-73
2022/08/08 05:46:58;;;;;;;9.30;4.03;;;;;;;;;;5034392;28;20392;-75
2022/08/08 05:49:25;;;;;;;6.55;4.18;;;;;;;;;;5042038;28;20083;-75
2022/08/08 05:51:51;;;;;;;8.23;4.40;;;;;;;;;;5047428;28;20188;-74
2022/08/08 05:54:22;;;;;;;10.13;4.47;;;;;;;;;;5030962;28;20049;-74
2022/08/08 05:56:51;;;;;;;7.38;4.53;;;;;;;;;;5030725;28;20120;-73
2022/08/08 05:59:23;;;;;;;5.05;4.25;;;;;;;;;;5031375;28;20056;-74
2022/08/08 06:01:58;;;;;;;6.65;4.55;;;;;;;;;;5031060;28;20153;-74
2022/08/08 06:04:28;;;;;;;6.22;3.90;;;;;;;;;;5036424;28;20489;-75
2022/08/08 06:07:02;;;;;;;8.52;4.03;;;;;;;;;;5030531;28;20091;-74
2022/08/08 06:09:33;;;;;;;5.05;3.83;;;;;;;;;;5030860;28;20036;-75
2022/08/08 06:12:03;;;;;;;5.80;3.95;;;;;;;;;;5030128;28;20041;-71
2022/08/08 06:14:30;;;;;;;6.97;3.80;;;;;;;;;;5030229;28;20160;-72
2022/08/08 06:17:02;;;;;;;5.22;3.78;;;;;;;;;;5043729;28;20128;-72
2022/08/08 06:19:39;;;;;;;4.75;3.63;;;;;;;;;;5049742;28;20033;-74
2022/08/08 06:22:05;;;;;;;5.10;3.45;;;;;;;;;;5049757;28;20380;-76
2022/08/08 06:24:41;;;;;;;5.28;3.40;;;;;;;;;;5034993;28;20045;-73
2022/08/08 06:27:09;;;;;;;5.65;4.00;;;;;;;;;;5051274;28;20041;-74
2022/08/08 06:30:04;;;;;;;6.50;3.92;;;;;;;;;;5049057;28;20029;-74
2022/08/08 06:32:44;;;;;;;6.15;3.38;;;;;;;;;;5033547;28;20041;-75
2022/08/08 06:35:14;;;;;;;8.18;3.63;;;;;;;;;;5030176;28;20045;-75
2022/08/08 06:37:53;;;;;;;8.88;3.60;;;;;;;;;;5032979;28;20398;-73
2022/08/08 06:40:23;;;;;;;6.55;3.35;;;;;;;;;;5031904;28;20037;-71
2022/08/08 06:42:55;;;;;;;6.65;3.63;;;;;;;;;;5039905;28;20033;-73
2022/08/08 06:45:26;;;;;;;6.35;3.60;;;;;;;;;;5034267;28;20511;-72
2022/08/08 06:47:52;;;;;;;5.22;3.22;;;;;;;;;;5034119;28;20045;-70
2022/08/08 06:50:18;;;;;;;5.28;2.90;;;;;;;;;;5034031;28;20029;-72
2022/08/08 06:52:45;;;;;;;7.22;3.22;;;;;;;;;;5033766;28;20045;-72
2022/08/08 06:55:12;;;;;;;6.13;3.22;;;;;;;;;;5037746;28;20350;-72
2022/08/08 06:57:38;;;;;;;4.97;2.38;;;;;;;;;;5038934;28;20034;-72
2022/08/08 07:00:08;;;;;;;4.90;2.35;;;;;;;;;;5033435;28;20034;-72
2022/08/08 07:02:36;;;;;;;6.03;2.50;;;;;;;;;;5033435;28;20500;-72
2022/08/08 07:05:08;;;;;;;5.82;2.50;;;;;;;;;;5035322;28;20464;-72
2022/08/08 07:07:49;;;;;;;8.25;2.55;;;;;;;;;;5043496;28;20038;-72
2022/08/08 07:10:19;;;;;;;8.32;2.55;;;;;;;;;;5049614;28;20444;-72
2022/08/08 07:13:01;;;;;;;4.18;2.20;;;;;;;;;;5041725;28;20041;-68
2022/08/08 07:15:40;;;;;;;5.13;2.50;;;;;;;;;;5033439;28;20521;-70
2022/08/08 07:18:07;;;;;;;4.82;2.40;;;;;;;;;;5031901;28;20472;-70
2022/08/08 07:20:41;;;;;;;5.40;2.55;;;;;;;;;;5051716;28;20033;-70
2022/08/08 07:23:23;;;;;;;6.47;2.30;;;;;;;;;;5052426;28;20549;-71
2022/08/08 07:25:52;;;;;;;;;;;;;;;;;;5052632;28;20068;-70
2022/08/08 07:28:25;;;;;;;3.92;2.70;;;;;;;;;;5052532;28;19917;-71
2022/08/08 07:30:51;;;;;;;6.32;2.30;;;;;;;;;;5051726;28;20044;-70
2022/08/08 07:33:21;;;;;;;5.68;2.70;;;;;;;;;;5048947;28;20055;-70
2022/08/08 07:35:48;;;;;;;7.78;2.80;;;;;;;;;;5032083;28;20405;-70
2022/08/08 07:38:18;;;;;;;4.43;2.78;;;;;;;;;;5031951;28;20059;-71
2022/08/08 07:40:57;;;;;;;5.30;2.50;;;;;;;;;;5032181;28;20146;-70
2022/08/08 07:43:31;;;;;;;5.60;2.67;;;;;;;;;;5048426;28;20484;-70
2022/08/08 07:45:57;;;;;;;6.72;2.65;;;;;;;;;;5050084;28;20037;-70
2022/08/08 07:48:23;;;;;;;4.72;2.72;;;;;;;;;;5043940;28;20041;-72
2022/08/08 07:50:52;;;;;;;4.47;2.67;;;;;;;;;;5032476;28;20500;-70
2022/08/08 07:53:43;;;;;;;4.43;2.97;;;;;;;;;;5039961;28;20045;-69
2022/08/08 07:56:14;;;;;;;4.68;2.85;;;;;;;;;;5040930;28;21765;-70
2022/08/08 07:58:42;;;;;;;3.75;2.70;;;;;;;;;;5058979;28;20033;-72
2022/08/08 08:01:12;;;;;;;4.07;2.60;;;;;;;;;;5047033;28;20091;-70
2022/08/08 08:03:56;;;;;;;6.32;2.55;;;;;;;;;;5047534;28;20044;-71
2022/08/08 08:06:26;;;;;;;5.25;2.22;;;;;;;;;;5050165;28;20032;-72
2022/08/08 08:09:23;;;;;;;7.47;2.78;;;;;;;;;;5031821;28;20209;-74
2022/08/08 08:11:50;;;;;;;7.07;2.50;;;;;;;;;;5037763;28;20090;-71
2022/08/08 08:14:29;;;;;;;4.95;2.10;;;;;;;;;;5055022;28;20037;-72
2022/08/08 08:16:58;;;;;;;7.47;2.70;;;;;;;;;;5035876;28;20029;-71
2022/08/08 08:19:33;;;;;;;3.95;2.15;;;;;;;;;;5031229;28;20056;-70
2022/08/08 08:21:59;;;;;;;3.17;2.10;;;;;;;;;;5041070;28;20033;-71
2022/08/08 08:24:31;;;;;;;3.88;2.08;;;;;;;;;;5039602;28;20032;-72
2022/08/08 08:26:59;;;;;;;4.88;2.30;;;;;;;;;;5058515;28;20036;-71
2022/08/08 08:29:26;;;;;;;4.32;2.70;;;;;;;;;;5067943;28;20446;-71
2022/08/08 08:31:52;;;;;;;8.23;2.50;;;;;;;;;;5047473;28;20043;-72
2022/08/08 08:34:19;;;;;;;3.80;2.00;;;;;;;;;;5047435;28;20041;-71
2022/08/08 08:36:45;;;;;;;4.82;2.45;;;;;;;;;;5039313;28;20073;-71
2022/08/08 08:39:11;;;;;;;7.45;3.05;;;;;;;;;;5030554;28;20373;-73
2022/08/08 08:41:42;;;;;;;6.63;2.50;;;;;;;;;;5038895;28;20036;-70
2022/08/08 08:44:09;;;;;;;5.43;2.38;;;;;;;;;;5065073;28;20404;-71
2022/08/08 08:46:37;;;;;;;7.45;2.22;;;;;;;;;;5039330;28;20087;-70
2022/08/08 08:49:05;;;;;;;5.25;2.17;;;;;;;;;;5030384;28;20069;-70
2022/08/08 08:51:40;;;;;;;5.45;2.13;;;;;;;;;;5030675;28;20037;-73
2022/08/08 08:54:09;;;;;;;8.40;2.40;;;;;;;;;;5049105;28;20128;-73
2022/08/08 08:56:37;;;;;;;14.02;2.70;;;;;;;;;;5051686;28;20037;-73
2022/08/08 08:59:10;;;;;;;5.90;2.17;;;;;;;;;;5051751;28;20468;-71
2022/08/08 09:01:42;;;;;;;6.47;2.08;;;;;;;;;;5041729;28;20473;-70
2022/08/08 09:04:20;;;;;;;7.03;2.22;;;;;;;;;;5029481;28;20083;-70
2022/08/08 09:06:49;;;;;;;5.03;2.15;;;;;;;;;;5028168;28;20045;-70
2022/08/08 09:09:20;;;;;;;5.53;2.28;;;;;;;;;;5029172;28;20030;-72
2022/08/08 09:11:47;;;;;;;3.47;2.20;;;;;;;;;;5037654;28;20067;-71
2022/08/08 09:14:18;;;;;;;6.28;2.22;;;;;;;;;;5044902;28;20547;-70
2022/08/08 09:16:46;;;;;;;3.95;2.00;;;;;;;;;;5043296;28;20086;-71
2022/08/08 09:19:13;;;;;;;5.43;2.22;;;;;;;;;;5038948;28;20405;-71
2022/08/08 09:21:40;;;;;;;4.22;2.10;;;;;;;;;;5041521;28;20056;-71
2022/08/08 09:24:07;;;;;;;8.55;2.47;;;;;;;;;;5047658;28;20044;-74
2022/08/08 09:26:45;;;;;;;8.90;2.30;;;;;;;;;;5045054;28;20484;-72
2022/08/08 09:29:21;;;;;;;4.32;2.08;;;;;;;;;;5049302;28;20433;-73
2022/08/08 09:31:53;;;;;;;5.13;2.20;;;;;;;;;;5037247;28;20510;-72
2022/08/08 09:34:22;;;;;;;4.28;2.08;;;;;;;;;;5045564;28;20147;-71
2022/08/08 09:36:48;;;;;;;4.13;1.92;;;;;;;;;;5035035;28;20056;-71
2022/08/08 09:39:20;;;;;;;8.25;2.08;;;;;;;;;;5050691;28;20035;-70
2022/08/08 09:42:01;;;;;;;5.10;2.00;;;;;;;;;;5046264;28;20397;-69
2022/08/08 09:44:47;;;;;;;7.43;1.95;;;;;;;;;;5029260;28;20113;-71
2022/08/08 09:47:14;;;;;;;5.90;2.03;;;;;;;;;;5018381;28;20152;-70
2022/08/08 09:49:44;;;;;;;4.50;2.05;;;;;;;;;;5032981;28;20033;-70
2022/08/08 09:52:15;;;;;;;5.32;2.00;;;;;;;;;;5030953;28;20112;-70
2022/08/08 09:54:42;;;;;;;6.68;1.92;;;;;;;;;;5030470;28;20040;-71
2022/08/08 09:57:10;;;;;;;6.03;1.92;;;;;;;;;;5039832;28;20120;-73
2022/08/08 09:59:41;;;;;;;5.93;2.10;;;;;;;;;;5034667;28;20037;-74
2022/08/08 10:02:18;;;;;;;4.00;1.90;;;;;;;;;;5043187;28;20045;-72
2022/08/08 10:04:45;;;;;;;7.63;2.25;;;;;;;;;;5050596;28;20033;-71
2022/08/08 10:07:12;;;;;;;11.60;2.10;;;;;;;;;;5050392;28;20033;-70
2022/08/08 10:09:42;;;;;;;6.03;2.13;;;;;;;;;;5050124;28;20037;-73
2022/08/08 10:12:08;;;;;;;6.60;1.83;;;;;;;;;;5049900;28;20425;-71
2022/08/08 10:14:36;;;;;;;2.83;1.70;;;;;;;;;;5050391;28;20116;-71
2022/08/08 10:17:03;;;;;;;5.30;1.90;;;;;;;;;;5049674;28;20033;-72
2022/08/08 10:19:40;;;;;;;4.82;2.20;;;;;;;;;;5053807;28;20043;-72
2022/08/08 10:22:08;;;;;;;5.85;2.03;;;;;;;;;;5053979;28;20044;-71
2022/08/08 10:24:35;;;;;;;7.13;2.00;;;;;;;;;;5046151;28;20034;-71
2022/08/08 10:27:05;;;;;;;7.35;2.00;;;;;;;;;;5054823;28;20032;-71
2022/08/08 10:29:38;;;;;;;10.52;1.95;;;;;;;;;;5054334;28;20127;-71
2022/08/08 10:34:59;;;;;;;6.65;1.90;;;;;;;;;;5053871;28;20056;-70
2022/08/08 10:37:33;;;;;;;4.22;2.10;;;;;;;;;;5052454;28;20037;-72
2022/08/08 10:40:10;;;;;;;4.10;1.83;;;;;;;;;;5034468;28;20080;-72
2022/08/08 10:42:37;;;;;;;3.33;1.92;;;;;;;;;;5034379;28;20448;-73
2022/08/08 10:45:05;;;;;;;5.50;1.98;;;;;;;;;;5034742;28;20037;-72
2022/08/08 10:47:32;;;;;;;4.18;1.83;;;;;;;;;;5034163;28;20061;-71
2022/08/08 10:50:00;;;;;;;8.80;2.15;;;;;;;;;;5047695;28;20029;-73
2022/08/08 10:52:40;;;;;;;5.30;2.00;;;;;;;;;;5044706;28;20551;-74
2022/08/08 10:55:16;;;;;;;5.85;1.67;;;;;;;;;;5054526;28;20033;-73
2022/08/08 10:57:47;;;;;;;7.43;1.65;;;;;;;;;;5047911;28;20025;-72
2022/08/08 11:00:24;;;;;;;4.93;1.80;;;;;;;;;;5045221;28;20060;-74
2022/08/08 11:02:50;;;;;;;9.73;2.08;;;;;;;;;;5050610;28;20041;-73
2022/08/08 11:05:17;;;;;;;5.00;1.85;;;;;;;;;;5053414;28;20369;-72
2022/08/08 11:07:49;;;;;;;6.43;1.83;;;;;;;;;;5051716;28;20476;-72
2022/08/08 11:10:18;;;;;;;8.67;2.07;;;;;;;;;;5052392;28;20083;-72
2022/08/08 11:12:55;;;;;;;4.28;1.70;;;;;;;;;;5053111;28;20028;-70
2022/08/08 11:15:24;;;;;;;5.22;2.03;;;;;;;;;;5052178;28;20492;-71
2022/08/08 11:17:51;;;;;;;6.20;2.67;;;;;;;;;;5052652;28;20431;-72
2022/08/08 11:20:19;;;;;;;4.53;1.73;;;;;;;;;;5052863;28;20037;-71
2022/08/08 11:22:55;;;;;;;4.13;1.80;;;;;;;;;;5054477;28;20098;-70
2022/08/08 11:25:27;;;;;;;4.40;1.90;;;;;;;;;;5054792;28;20036;-72
2022/08/08 11:27:54;;;;;;;5.95;2.17;;;;;;;;;;5053831;28;20091;-71
2022/08/08 11:30:22;;;;;;;3.60;1.60;;;;;;;;;;5053559;28;20029;-70
2022/08/08 11:32:52;;;;;;;4.32;1.60;;;;;;;;;;5053550;28;20034;-72
2022/08/08 11:35:20;;;;;;;7.03;2.05;;;;;;;;;;5054981;28;20040;-71
2022/08/08 11:37:46;;;;;;;3.97;2.00;;;;;;;;;;5055159;28;20475;-71
2022/08/08 11:40:13;;;;;;;3.50;1.80;;;;;;;;;;5054959;28;20029;-72
2022/08/08 11:42:41;;;;;;;4.20;2.15;;;;;;;;;;5055075;28;20045;-70
2022/08/08 11:45:08;;;;;;;5.13;1.80;;;;;;;;;;5054927;28;20048;-70
2022/08/08 11:47:37;;;;;;;3.13;1.65;;;;;;;;;;5054766;28;20029;-71
2022/08/08 11:50:11;;;;;;;3.50;1.85;;;;;;;;;;5054964;28;20451;-71
2022/08/08 11:52:38;;;;;;;6.72;2.03;;;;;;;;;;5052660;28;20392;-70
2022/08/08 11:55:27;;;;;;;4.45;1.95;;;;;;;;;;5053313;28;20119;-71
2022/08/08 11:58:04;;;;;;;5.60;1.85;;;;;;;;;;5034733;28;20033;-70
2022/08/08 12:00:30;;;;;;;3.58;1.90;;;;;;;;;;5034656;28;20052;-70
2022/08/08 12:02:58;;;;;;;5.68;1.88;;;;;;;;;;5033320;28;20113;-71
2022/08/08 12:05:32;;;;;;;4.38;1.83;;;;;;;;;;5033275;28;20457;-69
2022/08/08 12:07:59;;;;;;;4.35;1.55;;;;;;;;;;5034869;28;20040;-70
2022/08/08 12:10:27;;;;;;;6.00;1.90;;;;;;;;;;5034510;28;20040;-70
2022/08/08 12:13:05;;;;;;;6.03;1.70;;;;;;;;;;5034499;28;20029;-70
2022/08/08 12:15:39;;;;;;;8.38;2.42;;;;;;;;;;5034230;28;20029;-70
2022/08/08 12:18:22;;;;;;;4.95;1.73;;;;;;;;;;5051165;28;20029;-70
2022/08/08 12:20:49;;;;;;;;;;;;;;;;;;5054903;28;20055;-71
2022/08/08 12:23:26;;;;;;;5.55;1.92;;;;;;;;;;5054111;28;19917;-71
2022/08/08 12:25:52;;;;;;;4.07;1.98;;;;;;;;;;5053835;28;20063;-70
2022/08/08 12:28:18;;;;;;;5.88;1.90;;;;;;;;;;5054191;28;20033;-70
2022/08/08 12:30:45;;;;;;;4.85;1.90;;;;;;;;;;5053872;28;20064;-69
2022/08/08 12:33:25;;;;;;;4.30;1.60;;;;;;;;;;5053724;28;20033;-71
2022/08/08 12:35:52;;;;;;;5.55;1.83;;;;;;;;;;5053594;28;20051;-69
2022/08/08 12:38:18;;;;;;;7.55;1.92;;;;;;;;;;5053950;28;20033;-69
2022/08/08 12:40:47;;;;;;;5.53;1.70;;;;;;;;;;5053367;28;20048;-68
2022/08/08 12:43:15;;;;;;;5.10;1.90;;;;;;;;;;5043692;28;20037;-70
2022/08/08 12:45:44;;;;;;;4.53;2.25;;;;;;;;;;5033996;28;20524;-69
2022/08/08 12:48:18;;;;;;;4.38;1.73;;;;;;;;;;5034207;28;20040;-70
2022/08/08 12:50:50;;;;;;;5.18;1.67;;;;;;;;;;5033956;28;20120;-70
2022/08/08 12:53:32;;;;;;;5.22;1.88;;;;;;;;;;5033873;28;20476;-69
2022/08/08 12:56:07;;;;;;;3.97;1.90;;;;;;;;;;5033535;28;20029;-69
2022/08/08 12:59:15;;;;;;;5.57;2.08;;;;;;;;;;5033649;28;20760;-70
2022/08/08 13:01:41;;;;;;;4.72;1.77;;;;;;;;;;5026937;28;20049;-70
2022/08/08 13:04:33;;;;;;;4.90;1.95;;;;;;;;;;5033486;28;20453;-70
2022/08/08 13:07:01;;;;;;;3.50;1.90;;;;;;;;;;5033512;28;20041;-70
2022/08/08 13:09:34;;;;;;;6.13;1.80;;;;;;;;;;5033552;28;20046;-70
2022/08/08 13:12:01;;;;;;;6.85;2.17;;;;;;;;;;5033586;28;20048;-69
2022/08/08 13:14:46;;;;;;;4.18;1.90;;;;;;;;;;5033358;28;20045;-70
2022/08/08 13:17:14;;;;;;;5.35;2.05;;;;;;;;;;5033405;28;20603;-70
2022/08/08 13:19:45;;;;;;;3.15;1.80;;;;;;;;;;5033360;28;20030;-70
2022/08/08 13:22:15;;;;;;;3.88;1.67;;;;;;;;;;5033391;28;20121;-70
2022/08/08 13:24:41;;;;;;;4.63;1.80;;;;;;;;;;5033203;28;20031;-70
2022/08/08 13:27:09;;;;;;;7.78;1.90;;;;;;;;;;5033382;28;20061;-70
2022/08/08 13:29:38;;;;;;;4.47;2.08;;;;;;;;;;5033197;28;20025;-71
2022/08/08 13:32:05;;;;;;;4.70;2.30;;;;;;;;;;5033334;28;20099;-71
2022/08/08 13:34:37;;;;;;;6.25;1.80;;;;;;;;;;5033033;28;20481;-70
2022/08/08 13:37:06;;;;;;;11.07;2.17;;;;;;;;;;5033171;28;20171;-70
2022/08/08 13:39:32;;;;;;;5.55;1.80;;;;;;;;;;5033218;28;20034;-71
2022/08/08 13:41:59;;;;;;;3.53;1.67;;;;;;;;;;5033239;28;20030;-71
2022/08/08 13:44:27;;;;;;;4.22;1.92;;;;;;;;;;5033109;28;20099;-69
2022/08/08 13:46:56;;;;;;;4.47;1.85;;;;;;;;;;5033195;28;20037;-70
2022/08/08 13:49:27;;;;;;;5.68;1.85;;;;;;;;;;5033310;28;20034;-71
2022/08/08 13:51:58;;;;;;;5.35;1.98;;;;;;;;;;5033025;28;20122;-70
2022/08/08 13:54:26;;;;;;;9.55;2.17;;;;;;;;;;5032933;28;20033;-70
2022/08/08 13:57:07;;;;;;;5.65;2.00;;;;;;;;;;5033157;28;20036;-71
2022/08/08 13:59:35;;;;;;;6.03;2.10;;;;;;;;;;5031936;28;20033;-71
2022/08/08 14:02:03;;;;;;;4.45;1.83;;;;;;;;;;5032796;28;20443;-71
2022/08/08 14:04:29;;;;;;;5.47;2.03;;;;;;;;;;5032851;28;20079;-72
2022/08/08 14:06:59;;;;;;;5.45;1.90;;;;;;;;;;5032775;28;20033;-69
2022/08/08 14:09:36;;;;;;;5.15;1.80;;;;;;;;;;5032951;28;20139;-70
2022/08/08 14:12:05;;;;;;;3.45;1.95;;;;;;;;;;5032809;28;20030;-70
2022/08/08 14:14:41;;;;;;;5.63;2.00;;;;;;;;;;5032507;28;20038;-71
2022/08/08 14:17:09;;;;;;;5.20;2.25;;;;;;;;;;5032882;28;20035;-70
2022/08/08 14:19:41;;;;;;;6.05;1.85;;;;;;;;;;5032510;28;20051;-71
2022/08/08 14:22:16;;;;;;;3.70;1.92;;;;;;;;;;5047892;28;20037;-70
2022/08/08 14:24:47;;;;;;;3.83;1.77;;;;;;;;;;5032294;28;20028;-70
2022/08/08 14:27:19;;;;;;;5.07;1.90;;;;;;;;;;5032389;28;20029;-71
2022/08/08 14:29:56;;;;;;;5.40;2.25;;;;;;;;;;5032307;28;20112;-70
2022/08/08 14:32:22;;;;;;;4.93;2.05;;;;;;;;;;5032299;28;20455;-70
2022/08/08 14:34:50;;;;;;;3.45;1.90;;;;;;;;;;5032069;28;20103;-70
2022/08/08 14:37:17;;;;;;;4.93;1.77;;;;;;;;;;5032223;28;20029;-70
2022/08/08 14:39:50;;;;;;;4.40;1.92;;;;;;;;;;5032475;28;20025;-70
2022/08/08 14:42:25;;;;;;;3.45;1.95;;;;;;;;;;5032382;28;20051;-69
2022/08/08 14:45:07;;;;;;;5.32;2.38;;;;;;;;;;5032399;28;20038;-71
2022/08/08 14:47:56;;;;;;;8.20;2.20;;;;;;;;;;5030829;28;20382;-70
2022/08/08 14:50:27;;;;;;;4.57;1.70;;;;;;;;;;5050636;28;20433;-71
2022/08/08 14:53:03;;;;;;;3.67;1.85;;;;;;;;;;5051059;28;20032;-70
2022/08/08 14:55:33;;;;;;;4.95;1.88;;;;;;;;;;5049642;28;20045;-70
2022/08/08 14:58:00;;;;;;;7.13;1.80;;;;;;;;;;5050736;28;20128;-69
2022/08/08 15:00:32;;;;;;;5.70;1.80;;;;;;;;;;5050324;28;20029;-71
2022/08/08 15:02:59;;;;;;;5.95;2.00;;;;;;;;;;5051164;28;20029;-70
2022/08/08 15:05:27;;;;;;;4.63;1.80;;;;;;;;;;5054441;28;20037;-70
2022/08/08 15:07:54;;;;;;;4.55;2.10;;;;;;;;;;5051660;28;20508;-70
2022/08/08 15:10:21;;;;;;;6.15;1.80;;;;;;;;;;5053701;28;20029;-70
2022/08/08 15:12:50;;;;;;;5.65;2.10;;;;;;;;;;5054220;28;20033;-70
2022/08/08 15:15:17;;;;;;;7.95;2.13;;;;;;;;;;5050382;28;20070;-69
2022/08/08 15:17:44;;;;;;;4.18;1.80;;;;;;;;;;5054296;28;20037;-70
2022/08/08 15:20:13;;;;;;;4.82;2.05;;;;;;;;;;5054232;28;20029;-70
2022/08/08 15:22:40;;;;;;;3.63;1.88;;;;;;;;;;5053722;28;20396;-70
2022/08/08 15:25:08;;;;;;;7.07;2.10;;;;;;;;;;5053965;28;20044;-70